Impacts TAF Board INFO
FOR SITUATIONAL AWARENESS. NOT TO BE USED FOR FLIGHT PLANNING PURPOSES.
IDs:

KDHN - Dothan Rgnl, AL, US

Issued at 1120 UTC 22 Nov 2017
Updated at 1309 UTC 22 Nov 2017
Potential Impact None Slight Moderate High
Time1253Z 22/14Z 22/15Z 22/16Z 22/17Z 22/18Z 22/19Z 22/20Z 22/21Z 22/22Z 22/23Z 23/00Z 23/01Z 23/02Z>>
Type OBS PRVL PRVL PRVL PRVL PRVL PRVL PRVL PRVL PRVL PRVL PRVL PRVL PRVL
VIS 9 >6 >6 >6 >6 >6 >6 >6 >6 >6 >6 >6 >6 >6
CIG 27 30 30 30 30 30 30 30 50 50 50 50 50 50
Cover OVC OVC OVC OVC OVC OVC OVC OVC OVC OVC OVC OVC OVC OVC
FltCat MVFR MVFR MVFR MVFR MVFR MVFR MVFR MVFR VFR VFR VFR VFR VFR VFR
WX -- -- -- -- -- -- -- -- -- -- -- -- -- --
WDir 10 360 360 360 360 360 360 360 360 360 360 360 360 360
WSpd 5 7 7 7 7 7 7 7 7 7 7 7 7 7
WGst -- -- -- -- -- -- -- -- -- -- -- -- -- --

Raw TAF
KDHN 221120Z 2212/2312 36006KT P6SM OVC015
  FM221400 36007KT P6SM OVC030
  FM222100 36007KT P6SM OVC050


Raw METAR
KDHN 221253Z 01005KT 9SM OVC027 14/14 A3005 RMK AO2 SLP173 T01390139 $
KDHN 221153Z 34006KT 9SM OVC026 14/13 A3004 RMK AO2 SLP170 70001 T01390133 10144 20106 53010 $
KDHN 221125Z AUTO 35003KT 9SM BKN026 13/13 A3003 RMK AO2 T01280128 $
KDHN 221053Z AUTO 36004KT 10SM BKN055 13/13 A3001 RMK AO2 SLP161 T01330128 $

METAR Board
Radar Display
Forecast Discussion

FOR SITUATIONAL AWARENESS. NOT TO BE USED FOR FLIGHT PLANNING PURPOSES.